createdAt,value
2023-04-02T00:01:38.964Z,4.00
2023-04-02T00:04:26.392Z,3.82
2023-04-02T00:07:33.233Z,4.35
2023-04-02T00:10:00.432Z,4.34
2023-04-02T00:12:27.532Z,4.37
2023-04-02T00:14:55.941Z,3.74
2023-04-02T00:17:26.045Z,3.96
2023-04-02T00:20:07.736Z,4.16
2023-04-02T00:22:34.919Z,4.32
2023-04-02T00:25:12.409Z,4.04
2023-04-02T00:27:40.207Z,3.90
2023-04-02T00:30:14.354Z,4.33
2023-04-02T00:32:42.150Z,3.76
2023-04-02T00:35:27.006Z,4.13
2023-04-02T00:37:55.437Z,4.06
2023-04-02T00:40:30.925Z,4.06
2023-04-02T00:43:04.317Z,4.51
2023-04-02T00:45:38.642Z,4.31
2023-04-02T00:48:59.610Z,4.51
2023-04-02T00:51:44.146Z,4.14
2023-04-02T00:54:16.158Z,4.28
2023-04-02T00:56:48.223Z,4.46
2023-04-02T00:59:42.915Z,4.40
2023-04-02T01:02:17.350Z,4.22
2023-04-02T01:05:24.604Z,4.22
2023-04-02T01:08:06.553Z,4.16
2023-04-02T01:11:04.603Z,4.09
2023-04-02T01:14:15.777Z,4.42
2023-04-02T01:17:08.684Z,4.33
2023-04-02T01:20:12.129Z,4.37
2023-04-02T01:23:16.927Z,4.43
2023-04-02T01:26:00.655Z,4.08
2023-04-02T01:29:02.576Z,4.02
2023-04-02T01:31:33.120Z,4.21
2023-04-02T01:34:02.471Z,3.96
2023-04-02T01:36:47.638Z,4.05
2023-04-02T01:39:42.610Z,4.06
2023-04-02T01:42:43.010Z,3.85
2023-04-02T01:45:19.513Z,4.39
2023-04-02T01:47:47.296Z,3.89
2023-04-02T01:50:24.099Z,3.68
2023-04-02T01:52:59.085Z,4.18
2023-04-02T01:55:59.995Z,4.03
2023-04-02T01:58:32.343Z,4.14
2023-04-02T02:01:17.547Z,4.07
2023-04-02T02:03:45.534Z,4.11
2023-04-02T02:06:16.628Z,3.95
2023-04-02T02:09:03.670Z,4.37
2023-04-02T02:11:33.566Z,4.22
2023-04-02T02:14:12.794Z,4.40
2023-04-02T02:16:41.901Z,3.85
2023-04-02T02:19:32.839Z,4.06
2023-04-02T02:22:30.063Z,4.68
2023-04-02T02:25:01.990Z,4.60
2023-04-02T02:27:28.891Z,4.48
2023-04-02T02:30:17.532Z,4.57
2023-04-02T02:33:04.150Z,4.45
2023-04-02T02:36:07.613Z,4.48
2023-04-02T02:38:34.478Z,4.05
2023-04-02T02:41:31.696Z,3.99
2023-04-02T02:44:18.581Z,4.12
2023-04-02T02:46:53.591Z,4.17
2023-04-02T02:49:32.908Z,4.24
2023-04-02T02:52:30.859Z,4.48
2023-04-02T02:55:12.411Z,4.47
2023-04-02T02:57:56.412Z,4.25
2023-04-02T03:00:24.685Z,4.17
2023-04-02T03:02:56.610Z,4.11
2023-04-02T03:05:29.146Z,4.06
2023-04-02T03:07:58.106Z,4.19
2023-04-02T03:10:50.598Z,4.41
2023-04-02T03:13:35.585Z,4.41
2023-04-02T03:16:28.178Z,4.69
2023-04-02T03:19:43.589Z,4.47
2023-04-02T03:22:38.303Z,3.91
2023-04-02T03:25:43.740Z,4.01
2023-04-02T03:28:21.205Z,4.30
2023-04-02T03:31:01.409Z,4.24
2023-04-02T03:33:39.436Z,3.80
2023-04-02T03:36:38.397Z,4.32
2023-04-02T03:39:51.422Z,4.16
2023-04-02T03:42:47.941Z,4.17
2023-04-02T03:45:39.230Z,4.26
2023-04-02T03:48:38.033Z,3.95
2023-04-02T03:52:14.820Z,4.17
2023-04-02T03:54:54.217Z,4.08
2023-04-02T03:58:08.545Z,4.03
2023-04-02T04:00:48.150Z,4.51
2023-04-02T04:03:36.552Z,4.27
2023-04-02T04:06:27.648Z,4.12
2023-04-02T04:09:35.339Z,4.18
2023-04-02T04:12:40.190Z,4.28
2023-04-02T04:15:21.374Z,4.32
2023-04-02T04:18:34.824Z,4.41
2023-04-02T04:21:12.463Z,4.46
2023-04-02T04:23:41.136Z,4.21
2023-04-02T04:26:35.066Z,4.15
2023-04-02T04:29:45.389Z,4.25
2023-04-02T04:32:38.895Z,4.41
2023-04-02T04:35:34.430Z,4.50
2023-04-02T04:38:14.448Z,4.48
2023-04-02T04:40:54.305Z,4.45
2023-04-02T04:43:50.406Z,4.50
2023-04-02T04:46:32.340Z,4.63
2023-04-02T04:49:33.962Z,4.58
2023-04-02T04:52:35.392Z,4.81
2023-04-02T04:55:04.121Z,4.77
2023-04-02T04:57:41.403Z,4.57
2023-04-02T05:00:25.964Z,5.29
2023-04-02T05:03:26.690Z,4.03
2023-04-02T05:05:59.838Z,4.52
2023-04-02T05:08:36.575Z,4.62
2023-04-02T05:11:38.080Z,4.32
2023-04-02T05:14:20.711Z,4.89
2023-04-02T05:17:10.172Z,4.90
2023-04-02T05:20:00.989Z,4.67
2023-04-02T05:22:51.335Z,4.99
2023-04-02T05:25:32.566Z,4.80
2023-04-02T05:28:50.876Z,4.68
2023-04-02T05:32:07.565Z,5.30
2023-04-02T05:34:39.588Z,4.73
2023-04-02T05:37:13.364Z,4.77
2023-04-02T05:39:49.318Z,4.87
2023-04-02T05:42:32.230Z,4.96
2023-04-02T05:45:46.679Z,4.54
2023-04-02T05:48:30.733Z,4.56
2023-04-02T05:50:58.978Z,5.25
2023-04-02T05:53:54.277Z,5.11
2023-04-02T05:56:39.766Z,5.10
2023-04-02T05:59:38.514Z,5.04
2023-04-02T06:02:15.952Z,4.91
2023-04-02T06:05:11.310Z,4.76
2023-04-02T06:08:08.795Z,4.96
2023-04-02T06:11:13.988Z,5.11
2023-04-02T06:13:41.072Z,4.78
2023-04-02T06:16:13.033Z,5.38
2023-04-02T06:18:40.283Z,5.22
2023-04-02T06:21:08.424Z,5.48
2023-04-02T06:24:04.349Z,5.03
2023-04-02T06:26:41.371Z,5.52
2023-04-02T06:29:28.103Z,5.66
2023-04-02T06:32:04.118Z,5.74
2023-04-02T06:34:33.446Z,5.23
2023-04-02T06:37:37.649Z,5.42
2023-04-02T06:40:29.429Z,5.25
2023-04-02T06:43:00.952Z,5.45
2023-04-02T06:45:41.978Z,6.12
2023-04-02T06:48:19.431Z,5.96
2023-04-02T06:50:56.485Z,5.90
2023-04-02T06:53:45.754Z,5.66
2023-04-02T06:56:47.768Z,5.52
2023-04-02T06:59:18.835Z,5.55
2023-04-02T07:01:55.909Z,5.98
2023-04-02T07:04:23.513Z,6.02
2023-04-02T07:06:51.180Z,5.78
2023-04-02T07:09:18.555Z,5.44
2023-04-02T07:11:46.341Z,5.84
2023-04-02T07:14:13.846Z,6.84
2023-04-02T07:16:44.222Z,6.35
2023-04-02T07:19:22.894Z,5.62
2023-04-02T07:21:50.009Z,5.58
2023-04-02T07:24:17.096Z,6.06
2023-04-02T07:26:44.326Z,5.58
2023-04-02T07:29:17.393Z,5.90
2023-04-02T07:31:44.629Z,6.51
2023-04-02T07:34:11.973Z,6.41
2023-04-02T07:36:39.207Z,6.06
2023-04-02T07:39:06.232Z,5.86
2023-04-02T07:41:33.562Z,5.21
2023-04-02T07:44:03.951Z,5.94
2023-04-02T07:46:31.070Z,5.87
2023-04-02T07:48:58.234Z,6.21
2023-04-02T07:51:26.608Z,6.15
2023-04-02T07:53:55.784Z,5.78
2023-04-02T07:56:25.498Z,5.54
2023-04-02T07:58:52.629Z,5.84
2023-04-02T08:01:27.092Z,6.25
2023-04-02T08:03:57.049Z,6.50
2023-04-02T08:06:25.313Z,6.42
2023-04-02T08:08:52.597Z,6.08
2023-04-02T08:11:19.993Z,6.28
2023-04-02T08:13:47.170Z,6.14
2023-04-02T08:16:14.615Z,5.92
2023-04-02T08:18:41.788Z,6.45
2023-04-02T08:21:11.041Z,6.63
2023-04-02T08:23:38.512Z,6.60
2023-04-02T08:26:06.963Z,6.51
2023-04-02T08:28:37.406Z,6.43
2023-04-02T08:31:04.900Z,6.28
2023-04-02T08:33:32.501Z,6.48
2023-04-02T08:35:59.822Z,6.00
2023-04-02T08:38:27.043Z,5.94
2023-04-02T08:40:58.626Z,6.05
2023-04-02T08:44:10.042Z,5.80
2023-04-02T08:47:01.277Z,6.59
2023-04-02T08:49:38.439Z,7.06
2023-04-02T08:52:05.617Z,7.34
2023-04-02T08:54:39.305Z,7.91
2023-04-02T08:57:58.959Z,7.61
2023-04-02T09:00:45.607Z,8.02
2023-04-02T09:03:45.695Z,7.93
2023-04-02T09:06:19.189Z,6.93
2023-04-02T09:08:52.938Z,8.11
2023-04-02T09:12:03.942Z,7.97
2023-04-02T09:14:41.795Z,8.72
2023-04-02T09:17:27.911Z,8.00
2023-04-02T09:20:21.302Z,8.55
2023-04-02T09:22:51.731Z,7.93
2023-04-02T09:25:25.552Z,8.05
2023-04-02T09:27:57.064Z,8.60
2023-04-02T09:30:52.658Z,9.41
2023-04-02T09:33:19.734Z,8.42
2023-04-02T09:35:57.868Z,8.78
2023-04-02T09:38:32.708Z,8.56
2023-04-02T09:41:07.479Z,8.24
2023-04-02T09:43:39.023Z,9.06
2023-04-02T09:46:26.282Z,8.22
2023-04-02T09:49:03.504Z,8.58
2023-04-02T09:51:36.599Z,9.08
2023-04-02T09:54:03.637Z,8.67
2023-04-02T09:56:37.226Z,8.03
2023-04-02T09:59:13.394Z,8.66
2023-04-02T10:01:54.640Z,8.41
2023-04-02T10:04:48.088Z,8.69
2023-04-02T10:07:45.071Z,9.21
2023-04-02T10:10:30.714Z,8.40
2023-04-02T10:13:30.581Z,7.64
2023-04-02T10:16:27.070Z,7.83
2023-04-02T10:19:34.082Z,8.90
2023-04-02T10:22:12.853Z,7.63
2023-04-02T10:24:40.600Z,7.41
2023-04-02T10:27:57.537Z,8.49
2023-04-02T10:31:17.497Z,8.99
2023-04-02T10:33:55.665Z,9.16
2023-04-02T10:37:03.572Z,8.74
2023-04-02T10:39:46.252Z,9.03
2023-04-02T10:42:43.826Z,8.67
2023-04-02T10:45:55.604Z,10.07
2023-04-02T10:48:54.625Z,9.14
2023-04-02T10:51:33.086Z,9.17
2023-04-02T10:54:41.642Z,8.78
2023-04-02T10:57:41.655Z,8.51
2023-04-02T11:00:12.550Z,8.93
2023-04-02T11:02:53.360Z,9.29
2023-04-02T11:05:44.817Z,8.57
2023-04-02T11:08:47.439Z,9.46
2023-04-02T11:11:36.606Z,8.70
2023-04-02T11:14:30.407Z,9.24
2023-04-02T11:17:02.906Z,9.62
2023-04-02T11:19:33.352Z,8.68
2023-04-02T11:22:25.784Z,9.83
2023-04-02T11:24:56.009Z,9.88
2023-04-02T11:27:33.878Z,9.56
2023-04-02T11:30:16.193Z,10.04
2023-04-02T11:32:49.339Z,10.56
2023-04-02T11:35:33.949Z,10.05
2023-04-02T11:38:10.054Z,10.35
2023-04-02T11:40:55.774Z,9.99
2023-04-02T11:43:37.815Z,9.93
2023-04-02T11:46:28.991Z,10.06
2023-04-02T11:49:37.728Z,9.64
2023-04-02T11:52:18.981Z,10.11
2023-04-02T11:54:54.937Z,10.26
2023-04-02T11:57:49.854Z,9.80
2023-04-02T12:00:31.804Z,10.38
2023-04-02T12:04:09.825Z,9.77
2023-04-02T12:07:20.335Z,10.38
2023-04-02T12:09:56.150Z,10.77
2023-04-02T12:12:33.853Z,11.13
2023-04-02T12:15:01.475Z,10.64
2023-04-02T12:17:38.242Z,9.72
2023-04-02T12:20:13.625Z,10.09
2023-04-02T12:22:50.834Z,10.63
2023-04-02T12:25:34.568Z,9.25
2023-04-02T12:28:18.548Z,10.17
2023-04-02T12:30:48.655Z,10.29
2023-04-02T12:33:38.130Z,9.90
2023-04-02T12:36:23.678Z,10.00
2023-04-02T12:38:54.578Z,10.14
2023-04-02T12:41:36.620Z,11.02
2023-04-02T12:44:18.436Z,10.52
2023-04-02T12:46:46.607Z,10.19
2023-04-02T12:49:42.108Z,10.51
2023-04-02T12:52:24.494Z,10.19
2023-04-02T12:55:03.258Z,11.09
2023-04-02T12:57:30.272Z,11.43
2023-04-02T13:00:06.524Z,10.52
2023-04-02T13:02:46.965Z,10.42
2023-04-02T13:05:31.359Z,10.49
2023-04-02T13:07:58.507Z,11.34
2023-04-02T13:10:27.866Z,10.64
2023-04-02T13:13:06.543Z,9.85
2023-04-02T13:15:36.700Z,10.30
2023-04-02T13:18:05.374Z,9.97
2023-04-02T13:20:41.939Z,10.11
2023-04-02T13:23:32.997Z,10.10
2023-04-02T13:26:26.158Z,9.87
2023-04-02T13:29:03.247Z,10.63
2023-04-02T13:31:33.334Z,10.55
2023-04-02T13:34:01.167Z,10.70
2023-04-02T13:36:29.458Z,11.08
2023-04-02T13:38:57.406Z,10.24
2023-04-02T13:41:59.475Z,9.75
2023-04-02T13:44:34.564Z,10.18
2023-04-02T13:47:01.919Z,9.97
2023-04-02T13:49:29.822Z,9.90
2023-04-02T13:52:05.516Z,9.68
2023-04-02T13:54:49.241Z,9.78
2023-04-02T13:57:16.823Z,10.44
2023-04-02T13:59:43.940Z,10.60
2023-04-02T14:02:24.330Z,11.21
2023-04-02T14:05:17.408Z,10.35
2023-04-02T14:08:16.538Z,10.37
2023-04-02T14:11:21.393Z,9.84
2023-04-02T14:14:36.424Z,10.73
2023-04-02T14:17:17.669Z,10.65
2023-04-02T14:20:32.116Z,10.61
2023-04-02T14:23:48.105Z,10.28
2023-04-02T14:26:40.072Z,9.89
2023-04-02T14:29:21.968Z,9.70
2023-04-02T14:32:20.344Z,9.50
2023-04-02T14:35:25.304Z,9.35
2023-04-02T14:38:04.901Z,9.83
2023-04-02T14:41:08.776Z,10.25
2023-04-02T14:43:45.339Z,10.65
2023-04-02T14:46:12.706Z,9.87
2023-04-02T14:49:08.940Z,9.70
2023-04-02T14:52:00.694Z,9.54
2023-04-02T14:54:42.662Z,9.61
2023-04-02T14:57:32.779Z,10.32
2023-04-02T15:00:33.814Z,10.40
2023-04-02T15:03:17.106Z,10.70
2023-04-02T15:06:10.630Z,9.74
2023-04-02T15:09:09.473Z,9.49
2023-04-02T15:11:54.896Z,9.63
2023-04-02T15:15:02.308Z,9.70
2023-04-02T15:17:30.978Z,11.59
2023-04-02T15:20:17.658Z,10.21
2023-04-02T15:23:07.871Z,9.48
2023-04-02T15:25:55.372Z,9.15
2023-04-02T15:28:37.200Z,8.71
2023-04-02T15:31:12.904Z,8.94
2023-04-02T15:34:05.797Z,9.50
2023-04-02T15:37:03.067Z,10.09
2023-04-02T15:40:06.033Z,10.29
2023-04-02T15:43:24.310Z,9.88
2023-04-02T15:46:31.009Z,8.78
2023-04-02T15:50:00.950Z,8.61
2023-04-02T15:52:58.969Z,8.85
2023-04-02T15:56:24.508Z,8.97
2023-04-02T15:59:39.262Z,9.67
2023-04-02T16:03:09.907Z,9.25
2023-04-02T16:06:00.719Z,8.71
2023-04-02T16:08:45.249Z,9.03
2023-04-02T16:11:15.158Z,8.87
2023-04-02T16:13:43.726Z,8.47
2023-04-02T16:16:32.583Z,9.48
2023-04-02T16:19:40.120Z,8.15
2023-04-02T16:22:30.517Z,8.88
2023-04-02T16:25:16.376Z,8.70
2023-04-02T16:28:28.266Z,8.97
2023-04-02T16:31:37.620Z,9.15
2023-04-02T16:35:22.197Z,9.36
2023-04-02T16:38:20.686Z,8.69
2023-04-02T16:41:41.301Z,9.11
2023-04-02T16:44:45.973Z,8.78
2023-04-02T16:47:21.491Z,8.57
2023-04-02T16:50:21.388Z,8.17
2023-04-02T16:53:17.061Z,8.02
2023-04-02T16:56:35.062Z,8.01
2023-04-02T16:59:40.402Z,8.35
2023-04-02T17:02:45.998Z,7.52
2023-04-02T17:05:56.678Z,7.46
2023-04-02T17:08:50.630Z,7.17
2023-04-02T17:11:48.883Z,7.45
2023-04-02T17:14:52.669Z,7.54
2023-04-02T17:17:22.505Z,7.21
2023-04-02T17:19:58.588Z,7.22
2023-04-02T17:22:25.706Z,7.87
2023-04-02T17:25:00.144Z,7.30
2023-04-02T17:27:42.909Z,7.49
2023-04-02T17:30:51.684Z,7.28
2023-04-02T17:33:21.588Z,6.72
2023-04-02T17:36:09.971Z,6.92
2023-04-02T17:39:25.451Z,6.86
2023-04-02T17:42:17.158Z,7.10
2023-04-02T17:45:18.212Z,6.87
2023-04-02T17:48:25.383Z,6.90
2023-04-02T17:51:21.728Z,6.79
2023-04-02T17:54:22.061Z,6.66
2023-04-02T17:57:00.602Z,6.42
2023-04-02T18:00:44.478Z,6.11
2023-04-02T18:04:04.938Z,6.42
2023-04-02T18:07:06.879Z,6.37
2023-04-02T18:09:43.336Z,6.26
2023-04-02T18:12:40.541Z,5.95
2023-04-02T18:15:41.668Z,6.23
2023-04-02T18:19:16.134Z,6.44
2023-04-02T18:22:39.287Z,6.03
2023-04-02T18:26:09.002Z,6.40
2023-04-02T18:29:08.056Z,5.87
2023-04-02T18:31:52.916Z,5.86
2023-04-02T18:35:10.482Z,5.66
2023-04-02T18:38:26.830Z,5.56
2023-04-02T18:41:14.937Z,5.73
2023-04-02T18:44:25.507Z,5.58
2023-04-02T18:46:59.416Z,5.31
2023-04-02T18:49:40.293Z,5.33
2023-04-02T18:52:17.344Z,5.27
2023-04-02T18:54:55.455Z,5.13
2023-04-02T18:57:29.933Z,5.40
2023-04-02T19:00:40.023Z,5.51
2023-04-02T19:03:31.545Z,5.49
2023-04-02T19:06:08.854Z,5.62
2023-04-02T19:09:01.140Z,5.15
2023-04-02T19:11:29.487Z,5.46
2023-04-02T19:14:01.213Z,4.72
2023-04-02T19:16:59.598Z,5.45
2023-04-02T19:20:02.329Z,5.06
2023-04-02T19:22:56.278Z,4.90
2023-04-02T19:25:56.077Z,5.24
2023-04-02T19:28:28.583Z,4.65
2023-04-02T19:31:26.298Z,4.91
2023-04-02T19:34:23.293Z,5.10
2023-04-02T19:37:36.572Z,5.18
2023-04-02T19:40:46.800Z,4.78
2023-04-02T19:43:13.906Z,4.54
2023-04-02T19:45:45.182Z,4.54
2023-04-02T19:48:44.188Z,4.52
2023-04-02T19:51:11.445Z,4.15
2023-04-02T19:53:38.493Z,4.31
2023-04-02T19:56:05.544Z,4.30
2023-04-02T19:58:35.965Z,4.52
2023-04-02T20:01:03.823Z,4.31
2023-04-02T20:03:31.495Z,4.31
2023-04-02T20:05:59.677Z,4.62
2023-04-02T20:08:28.271Z,4.51
2023-04-02T20:10:58.574Z,4.62
2023-04-02T20:13:25.816Z,3.93
2023-04-02T20:15:53.059Z,4.00
2023-04-02T20:18:21.487Z,3.84
2023-04-02T20:20:51.399Z,3.74
2023-04-02T20:23:20.031Z,3.92
2023-04-02T20:25:53.025Z,3.79
2023-04-02T20:28:22.731Z,3.88
2023-04-02T20:30:50.591Z,4.07
2023-04-02T20:35:16.205Z,3.55
2023-04-02T20:39:51.961Z,4.02
2023-04-02T20:42:19.101Z,4.01
2023-04-02T20:44:46.291Z,3.62
2023-04-02T20:47:13.819Z,3.30
2023-04-02T20:49:41.364Z,3.82
2023-04-02T20:52:09.292Z,3.79
2023-04-02T20:54:36.652Z,4.01
2023-04-02T20:57:05.272Z,3.70
2023-04-02T20:59:32.419Z,3.66
2023-04-02T21:01:59.634Z,3.65
2023-04-02T21:04:28.643Z,3.55
2023-04-02T21:06:57.099Z,3.42
2023-04-02T21:09:24.302Z,3.57
2023-04-02T21:11:51.529Z,3.37
2023-04-02T21:14:19.066Z,3.41
2023-04-02T21:16:46.294Z,3.57
2023-04-02T21:19:13.398Z,3.23
2023-04-02T21:21:41.059Z,3.20
2023-04-02T21:24:09.736Z,3.56
2023-04-02T21:26:40.945Z,3.04
2023-04-02T21:29:08.163Z,3.34
2023-04-02T21:31:39.679Z,3.07
2023-04-02T21:34:09.059Z,3.17
2023-04-02T21:36:45.494Z,3.15
2023-04-02T21:39:20.488Z,3.47
2023-04-02T21:41:50.807Z,2.80
2023-04-02T21:44:23.715Z,2.76
2023-04-02T21:46:53.678Z,2.98
2023-04-02T21:49:23.505Z,2.78
2023-04-02T21:51:52.136Z,3.03
2023-04-02T21:54:21.516Z,3.31
2023-04-02T21:56:51.887Z,3.05
2023-04-02T21:59:19.802Z,2.64
2023-04-02T22:01:50.431Z,2.72
2023-04-02T22:04:25.651Z,3.03
2023-04-02T22:06:54.041Z,2.81
2023-04-02T22:09:25.081Z,2.63
2023-04-02T22:11:59.038Z,3.01
2023-04-02T22:14:27.390Z,2.81
2023-04-02T22:17:00.884Z,3.10
2023-04-02T22:19:28.141Z,2.81
2023-04-02T22:21:56.277Z,2.92
2023-04-02T22:24:23.336Z,2.53
2023-04-02T22:26:51.092Z,2.75
2023-04-02T22:29:18.336Z,2.54
2023-04-02T22:31:45.535Z,2.73
2023-04-02T22:34:12.686Z,2.72
2023-04-02T22:36:39.800Z,2.95
2023-04-02T22:39:10.288Z,2.95
2023-04-02T22:41:38.232Z,2.53
2023-04-02T22:44:05.461Z,2.45
2023-04-02T22:46:32.689Z,2.62
2023-04-02T22:48:59.876Z,2.44
2023-04-02T22:51:27.987Z,2.25
2023-04-02T22:53:58.144Z,2.49
2023-04-02T22:56:32.783Z,2.53
2023-04-02T22:58:59.929Z,2.59
2023-04-02T23:01:35.427Z,2.30
2023-04-02T23:04:04.769Z,2.32
2023-04-02T23:06:32.530Z,2.18
2023-04-02T23:08:59.680Z,2.43
2023-04-02T23:11:28.245Z,2.62
2023-04-02T23:13:57.997Z,2.29
2023-04-02T23:16:29.476Z,2.59
2023-04-02T23:18:57.418Z,2.45
2023-04-02T23:21:26.139Z,2.19
2023-04-02T23:23:53.600Z,2.23
2023-04-02T23:26:29.578Z,2.15
2023-04-02T23:28:59.374Z,2.40
2023-04-02T23:31:27.190Z,2.17
2023-04-02T23:33:54.641Z,2.20
2023-04-02T23:36:34.369Z,2.06
2023-04-02T23:39:10.268Z,2.18
2023-04-02T23:41:40.826Z,2.09
2023-04-02T23:44:10.910Z,2.33
2023-04-02T23:46:38.271Z,2.03
2023-04-02T23:49:05.578Z,2.02
2023-04-02T23:51:32.949Z,2.30
2023-04-02T23:54:00.275Z,2.28
2023-04-02T23:56:28.345Z,2.14
2023-04-02T23:58:55.721Z,2.08
